Vancouver, British Columbia

1:07 AM PST on December 05, 2016 (GMT -0800)
Vancouver | | Change Station

Elev 13 ft 49.18 °N, 123.17 °W | Updated 7 minutes ago

Mostly Cloudy
Mostly Cloudy
34 °F
Feels Like 27 °F
N
8
Wind Variable Wind from ENE

Today
High -- | Low -- °F
--% Chance of Precip.
Yesterday
High -- | Low -- °F
Precip. -- in
Pressure 30.10 in
Visibility 20.0 miles
Clouds Few 2500 ft
Mostly Cloudy 18000 ft
Windchill 27 °F
Dew Point 32 °F
Humidity 93%
Rainfall 0.00 in
Snow Depth Not available.
7:51 AM 4:15 PM
Waxing Crescent, 30% visible
METAR CYVR 050900Z 07007KT 20SM FEW025 BKN180 01/M00 A3009 RMK SC2AC5 SLP191
Pressure 30.10 in
Visibility 20.0 miles
Clouds Few 2500 ft
Mostly Cloudy 18000 ft
Windchill 27 °F
Dew Point 32 °F
Humidity 93%
Rainfall 0.00 in
Snow Depth Not available.
7:51 AM 4:15 PM
Waxing Crescent, 30% visible
METAR CYVR 050900Z 07007KT 20SM FEW025 BKN180 01/M00 A3009 RMK SC2AC5 SLP191

10-Day Weather Forecast

Almanac

Astronomy

Dec. 05, 2016 Rise Set
Actual Time
Civil Twilight
Nautical Twilight
Astronomical Twilight
Moon
Length of Visible Light
Length of Day
Tomorrow will be .
, % of the Moon is Illuminated

Today's Extremes

Country Highs Country Lows

Community

WunderPhotos

Upload Photos

1,955,771 photos uploaded!

WunderBlog® & News

Nearby

Air Quality

  Air Quality AQ Index Pollutant
Not available.

Snow Depth

Station Depth Elevation

Earthquake Activity

City Distance Mag. Time & Date
Minimum magnitude displayed is 2.5.

Coastal Water Temperatures

Place Temperature

Stations

Nearby Weather Stations

Station Location Temp. Windchill Dew Point Humidity Wind Precip. Elev Updated Type
                   

Watches & Warnings

There are currently no watches in effect.